Hyattstown, Maryland
Current Conditions -  °F | °C
As of 3:55 PM on Tuesday 21 Oct 2014 (Local Time) from KGAI Reporting Station
Clear Clear  
Wind Chill: 64°   Ceiling: Unl
Heat Index: 64°   Visibility: 10mi
Dew Point: 46°   Wind: 5mph
Humidity: 52%   Direction: 330°NNW
Pressure: 29.84"   Gusts: NA
Location:  39.2617°N, 77.2734°W
Report Text: KGAI 211955Z 33004KT 10SM CLR 18/08 A2984 RMK AO1
Loading
Personal Weather Stations






























Interactive Weather Map
Tropical Storm Tracking
New forecast layout! Learn more

10-Day Weather Forecast

Advertisements
Track Severe Weather on mobile